Terminal Aerodrome Forecast
Issued by NWS

Home | Current Version | Previous Version | Text Only | Print | Product List | Glossary On
Versions: 1 2 3 4 5 6 7 8 9 10 11 12 13 14 15 16 17 18 19 20 21 22 23
571
FTUS44 KBMX 280540
TAFEET
TAF
KEET 280540Z 2806/0106 14005KT 3/4SM BR VV002
      TEMPO 2806/2809 1/4SM FG VV001
     FM281600 15006KT P6SM VCSH OVC008
     FM281900 17009KT P6SM SCT007 OVC012=

USA.gov is the U.S. government's official web portal to all federal, state and local government web resources and services.